sensor_id;sensor_type;location;lat;lon;timestamp;P1;durP1;ratioP1;P2;durP2;ratioP2
20185;SDS011;10252;48.792;8.582;2023-12-14T00:01:46;4.05;;;2.58;;
20185;SDS011;10252;48.792;8.582;2023-12-14T00:06:49;7.10;;;2.20;;
20185;SDS011;10252;48.792;8.582;2023-12-14T00:11:50;4.78;;;2.28;;
20185;SDS011;10252;48.792;8.582;2023-12-14T00:16:52;3.40;;;2.05;;
20185;SDS011;10252;48.792;8.582;2023-12-14T00:21:53;4.97;;;2.03;;
20185;SDS011;10252;48.792;8.582;2023-12-14T00:26:54;3.58;;;2.47;;
20185;SDS011;10252;48.792;8.582;2023-12-14T00:31:56;3.92;;;2.42;;
20185;SDS011;10252;48.792;8.582;2023-12-14T00:36:58;3.90;;;2.90;;
20185;SDS011;10252;48.792;8.582;2023-12-14T00:41:59;4.63;;;2.80;;
20185;SDS011;10252;48.792;8.582;2023-12-14T00:47:01;4.65;;;3.28;;
20185;SDS011;10252;48.792;8.582;2023-12-14T00:52:03;5.97;;;3.25;;
20185;SDS011;10252;48.792;8.582;2023-12-14T00:57:06;4.38;;;2.80;;
20185;SDS011;10252;48.792;8.582;2023-12-14T01:02:07;4.18;;;2.47;;
20185;SDS011;10252;48.792;8.582;2023-12-14T01:07:09;6.68;;;3.08;;
20185;SDS011;10252;48.792;8.582;2023-12-14T01:12:11;4.38;;;2.65;;
20185;SDS011;10252;48.792;8.582;2023-12-14T01:17:12;4.38;;;3.17;;
20185;SDS011;10252;48.792;8.582;2023-12-14T01:22:14;3.83;;;2.80;;
20185;SDS011;10252;48.792;8.582;2023-12-14T01:27:15;5.15;;;3.20;;
20185;SDS011;10252;48.792;8.582;2023-12-14T01:32:17;5.78;;;3.85;;
20185;SDS011;10252;48.792;8.582;2023-12-14T01:37:20;6.57;;;4.43;;
20185;SDS011;10252;48.792;8.582;2023-12-14T01:42:21;7.05;;;5.45;;
20185;SDS011;10252;48.792;8.582;2023-12-14T01:47:23;3.38;;;2.42;;
20185;SDS011;10252;48.792;8.582;2023-12-14T01:52:24;5.07;;;2.83;;
20185;SDS011;10252;48.792;8.582;2023-12-14T01:57:25;4.03;;;2.85;;
20185;SDS011;10252;48.792;8.582;2023-12-14T02:02:27;3.33;;;2.08;;
20185;SDS011;10252;48.792;8.582;2023-12-14T02:07:28;4.75;;;2.10;;
20185;SDS011;10252;48.792;8.582;2023-12-14T02:12:30;2.53;;;1.77;;
20185;SDS011;10252;48.792;8.582;2023-12-14T02:17:33;4.95;;;1.80;;
20185;SDS011;10252;48.792;8.582;2023-12-14T02:22:36;3.10;;;1.70;;
20185;SDS011;10252;48.792;8.582;2023-12-14T02:27:51;3.30;;;2.10;;
20185;SDS011;10252;48.792;8.582;2023-12-14T02:32:52;6.93;;;2.67;;
20185;SDS011;10252;48.792;8.582;2023-12-14T02:37:53;5.13;;;2.08;;
20185;SDS011;10252;48.792;8.582;2023-12-14T02:42:55;3.15;;;2.22;;
20185;SDS011;10252;48.792;8.582;2023-12-14T02:47:56;2.90;;;1.92;;
20185;SDS011;10252;48.792;8.582;2023-12-14T02:52:57;3.10;;;2.40;;
20185;SDS011;10252;48.792;8.582;2023-12-14T02:57:59;5.13;;;2.25;;
20185;SDS011;10252;48.792;8.582;2023-12-14T03:03:01;2.08;;;1.55;;
20185;SDS011;10252;48.792;8.582;2023-12-14T03:08:02;1.48;;;1.15;;
20185;SDS011;10252;48.792;8.582;2023-12-14T03:13:04;2.05;;;1.67;;
20185;SDS011;10252;48.792;8.582;2023-12-14T03:18:05;5.07;;;3.30;;
20185;SDS011;10252;48.792;8.582;2023-12-14T03:23:07;4.47;;;3.05;;
20185;SDS011;10252;48.792;8.582;2023-12-14T03:28:09;6.80;;;3.90;;
20185;SDS011;10252;48.792;8.582;2023-12-14T03:33:10;5.50;;;3.38;;
20185;SDS011;10252;48.792;8.582;2023-12-14T03:38:13;7.88;;;4.70;;
20185;SDS011;10252;48.792;8.582;2023-12-14T03:43:15;7.22;;;5.03;;
20185;SDS011;10252;48.792;8.582;2023-12-14T03:48:16;7.78;;;5.63;;
20185;SDS011;10252;48.792;8.582;2023-12-14T03:53:17;8.65;;;5.10;;
20185;SDS011;10252;48.792;8.582;2023-12-14T03:58:19;6.18;;;3.92;;
20185;SDS011;10252;48.792;8.582;2023-12-14T04:03:21;5.40;;;3.35;;
20185;SDS011;10252;48.792;8.582;2023-12-14T04:08:23;5.32;;;2.83;;
20185;SDS011;10252;48.792;8.582;2023-12-14T04:13:24;4.50;;;2.92;;
20185;SDS011;10252;48.792;8.582;2023-12-14T04:18:26;4.97;;;3.40;;
20185;SDS011;10252;48.792;8.582;2023-12-14T04:23:28;3.28;;;2.65;;
20185;SDS011;10252;48.792;8.582;2023-12-14T04:28:29;3.63;;;2.53;;
20185;SDS011;10252;48.792;8.582;2023-12-14T04:33:31;3.47;;;2.22;;
20185;SDS011;10252;48.792;8.582;2023-12-14T04:38:33;2.75;;;2.38;;
20185;SDS011;10252;48.792;8.582;2023-12-14T04:43:38;7.88;;;3.90;;
20185;SDS011;10252;48.792;8.582;2023-12-14T04:48:39;8.27;;;3.65;;
20185;SDS011;10252;48.792;8.582;2023-12-14T04:53:40;5.85;;;3.03;;
20185;SDS011;10252;48.792;8.582;2023-12-14T04:58:42;4.80;;;3.20;;
20185;SDS011;10252;48.792;8.582;2023-12-14T05:03:43;5.25;;;3.25;;
20185;SDS011;10252;48.792;8.582;2023-12-14T05:08:45;4.70;;;3.15;;
20185;SDS011;10252;48.792;8.582;2023-12-14T05:13:47;9.68;;;6.05;;
20185;SDS011;10252;48.792;8.582;2023-12-14T05:18:48;5.40;;;3.72;;
20185;SDS011;10252;48.792;8.582;2023-12-14T05:23:50;14.43;;;4.40;;
20185;SDS011;10252;48.792;8.582;2023-12-14T05:28:51;7.72;;;5.38;;
20185;SDS011;10252;48.792;8.582;2023-12-14T05:33:53;6.90;;;4.50;;
20185;SDS011;10252;48.792;8.582;2023-12-14T05:38:54;7.72;;;4.63;;
20185;SDS011;10252;48.792;8.582;2023-12-14T05:43:56;6.55;;;3.97;;
20185;SDS011;10252;48.792;8.582;2023-12-14T05:48:57;7.40;;;3.75;;
20185;SDS011;10252;48.792;8.582;2023-12-14T05:53:58;4.53;;;2.95;;
20185;SDS011;10252;48.792;8.582;2023-12-14T05:59:00;5.53;;;3.05;;
20185;SDS011;10252;48.792;8.582;2023-12-14T06:04:01;4.20;;;3.00;;
20185;SDS011;10252;48.792;8.582;2023-12-14T06:09:03;4.88;;;3.65;;
20185;SDS011;10252;48.792;8.582;2023-12-14T06:14:06;9.73;;;5.80;;
20185;SDS011;10252;48.792;8.582;2023-12-14T06:19:08;11.85;;;9.65;;
20185;SDS011;10252;48.792;8.582;2023-12-14T06:24:10;6.15;;;4.43;;
20185;SDS011;10252;48.792;8.582;2023-12-14T06:29:12;6.75;;;4.18;;
20185;SDS011;10252;48.792;8.582;2023-12-14T06:34:13;6.35;;;4.05;;
20185;SDS011;10252;48.792;8.582;2023-12-14T06:39:15;7.55;;;4.00;;
20185;SDS011;10252;48.792;8.582;2023-12-14T06:44:17;9.90;;;5.00;;
20185;SDS011;10252;48.792;8.582;2023-12-14T06:49:19;9.30;;;5.40;;
20185;SDS011;10252;48.792;8.582;2023-12-14T06:54:21;5.70;;;4.40;;
20185;SDS011;10252;48.792;8.582;2023-12-14T06:59:22;8.18;;;5.03;;
20185;SDS011;10252;48.792;8.582;2023-12-14T07:04:23;9.23;;;5.07;;
20185;SDS011;10252;48.792;8.582;2023-12-14T07:09:25;6.75;;;5.25;;
20185;SDS011;10252;48.792;8.582;2023-12-14T07:14:28;5.03;;;2.47;;
20185;SDS011;10252;48.792;8.582;2023-12-14T07:19:29;6.38;;;5.35;;
20185;SDS011;10252;48.792;8.582;2023-12-14T07:24:32;7.95;;;4.97;;
20185;SDS011;10252;48.792;8.582;2023-12-14T07:29:33;7.35;;;4.70;;
20185;SDS011;10252;48.792;8.582;2023-12-14T07:34:35;7.50;;;4.50;;
20185;SDS011;10252;48.792;8.582;2023-12-14T07:39:36;6.53;;;3.40;;
20185;SDS011;10252;48.792;8.582;2023-12-14T07:44:38;11.73;;;6.82;;
20185;SDS011;10252;48.792;8.582;2023-12-14T07:49:40;7.68;;;3.95;;
20185;SDS011;10252;48.792;8.582;2023-12-14T07:54:42;6.07;;;4.22;;
20185;SDS011;10252;48.792;8.582;2023-12-14T07:59:43;6.65;;;4.40;;
20185;SDS011;10252;48.792;8.582;2023-12-14T08:04:46;9.23;;;5.32;;
20185;SDS011;10252;48.792;8.582;2023-12-14T08:09:48;9.35;;;5.45;;
20185;SDS011;10252;48.792;8.582;2023-12-14T08:14:49;7.40;;;4.90;;
20185;SDS011;10252;48.792;8.582;2023-12-14T08:19:51;9.32;;;5.40;;
20185;SDS011;10252;48.792;8.582;2023-12-14T08:24:53;9.02;;;5.43;;
20185;SDS011;10252;48.792;8.582;2023-12-14T08:29:54;11.68;;;5.45;;
20185;SDS011;10252;48.792;8.582;2023-12-14T08:34:55;7.38;;;5.38;;
20185;SDS011;10252;48.792;8.582;2023-12-14T08:39:57;7.97;;;6.10;;
20185;SDS011;10252;48.792;8.582;2023-12-14T08:44:58;11.38;;;7.18;;
20185;SDS011;10252;48.792;8.582;2023-12-14T08:49:59;12.80;;;6.57;;
20185;SDS011;10252;48.792;8.582;2023-12-14T08:55:01;8.63;;;4.80;;
20185;SDS011;10252;48.792;8.582;2023-12-14T09:00:03;7.00;;;5.70;;
20185;SDS011;10252;48.792;8.582;2023-12-14T09:05:05;10.40;;;6.65;;
20185;SDS011;10252;48.792;8.582;2023-12-14T09:10:06;8.77;;;6.10;;
20185;SDS011;10252;48.792;8.582;2023-12-14T09:15:08;11.25;;;7.35;;
20185;SDS011;10252;48.792;8.582;2023-12-14T09:20:11;11.00;;;7.05;;
20185;SDS011;10252;48.792;8.582;2023-12-14T09:25:13;8.43;;;5.95;;
20185;SDS011;10252;48.792;8.582;2023-12-14T09:30:15;9.25;;;5.43;;
20185;SDS011;10252;48.792;8.582;2023-12-14T09:35:18;8.02;;;5.50;;
20185;SDS011;10252;48.792;8.582;2023-12-14T09:40:19;11.60;;;6.93;;
20185;SDS011;10252;48.792;8.582;2023-12-14T09:45:29;8.68;;;5.88;;
20185;SDS011;10252;48.792;8.582;2023-12-14T09:50:30;8.77;;;6.40;;
20185;SDS011;10252;48.792;8.582;2023-12-14T09:55:32;12.55;;;6.00;;
20185;SDS011;10252;48.792;8.582;2023-12-14T10:00:35;5.70;;;4.10;;
20185;SDS011;10252;48.792;8.582;2023-12-14T10:05:38;4.22;;;3.30;;
20185;SDS011;10252;48.792;8.582;2023-12-14T10:10:40;4.20;;;3.00;;
20185;SDS011;10252;48.792;8.582;2023-12-14T10:15:42;5.47;;;3.40;;
20185;SDS011;10252;48.792;8.582;2023-12-14T10:20:44;4.85;;;3.22;;
20185;SDS011;10252;48.792;8.582;2023-12-14T10:25:46;2.90;;;2.60;;
20185;SDS011;10252;48.792;8.582;2023-12-14T10:30:47;5.25;;;3.20;;
20185;SDS011;10252;48.792;8.582;2023-12-14T10:35:48;6.10;;;5.07;;
20185;SDS011;10252;48.792;8.582;2023-12-14T10:40:50;4.80;;;3.40;;
20185;SDS011;10252;48.792;8.582;2023-12-14T10:45:53;5.22;;;3.90;;
20185;SDS011;10252;48.792;8.582;2023-12-14T10:50:55;4.80;;;2.90;;
20185;SDS011;10252;48.792;8.582;2023-12-14T10:55:57;4.78;;;3.38;;
20185;SDS011;10252;48.792;8.582;2023-12-14T11:01:01;3.83;;;3.35;;
20185;SDS011;10252;48.792;8.582;2023-12-14T11:06:02;4.90;;;3.28;;
20185;SDS011;10252;48.792;8.582;2023-12-14T11:11:04;3.78;;;2.75;;
20185;SDS011;10252;48.792;8.582;2023-12-14T11:16:11;5.90;;;3.10;;
20185;SDS011;10252;48.792;8.582;2023-12-14T11:21:19;3.63;;;2.60;;
20185;SDS011;10252;48.792;8.582;2023-12-14T11:26:21;5.97;;;3.25;;
20185;SDS011;10252;48.792;8.582;2023-12-14T11:31:29;4.65;;;2.90;;
20185;SDS011;10252;48.792;8.582;2023-12-14T11:36:30;5.35;;;3.15;;
20185;SDS011;10252;48.792;8.582;2023-12-14T11:41:32;4.07;;;3.28;;
20185;SDS011;10252;48.792;8.582;2023-12-14T11:46:34;4.38;;;3.20;;
20185;SDS011;10252;48.792;8.582;2023-12-14T11:51:36;4.05;;;2.95;;
20185;SDS011;10252;48.792;8.582;2023-12-14T11:56:45;4.20;;;3.20;;
20185;SDS011;10252;48.792;8.582;2023-12-14T12:01:53;3.13;;;2.63;;
20185;SDS011;10252;48.792;8.582;2023-12-14T12:07:02;3.83;;;2.47;;
20185;SDS011;10252;48.792;8.582;2023-12-14T12:12:05;4.15;;;2.45;;
20185;SDS011;10252;48.792;8.582;2023-12-14T12:17:07;4.47;;;2.13;;
20185;SDS011;10252;48.792;8.582;2023-12-14T12:22:08;3.10;;;2.35;;
20185;SDS011;10252;48.792;8.582;2023-12-14T12:27:10;2.40;;;1.95;;
20185;SDS011;10252;48.792;8.582;2023-12-14T12:32:11;3.13;;;1.95;;
20185;SDS011;10252;48.792;8.582;2023-12-14T12:37:13;4.80;;;3.42;;
20185;SDS011;10252;48.792;8.582;2023-12-14T12:42:15;9.25;;;6.05;;
20185;SDS011;10252;48.792;8.582;2023-12-14T12:47:17;9.02;;;5.75;;
20185;SDS011;10252;48.792;8.582;2023-12-14T12:52:19;8.35;;;4.95;;
20185;SDS011;10252;48.792;8.582;2023-12-14T12:57:20;7.93;;;5.57;;
20185;SDS011;10252;48.792;8.582;2023-12-14T13:02:21;9.02;;;5.88;;
20185;SDS011;10252;48.792;8.582;2023-12-14T13:07:23;9.90;;;5.53;;
20185;SDS011;10252;48.792;8.582;2023-12-14T13:12:25;9.68;;;6.53;;
20185;SDS011;10252;48.792;8.582;2023-12-14T13:17:27;8.20;;;6.00;;
20185;SDS011;10252;48.792;8.582;2023-12-14T13:22:28;11.10;;;6.30;;
20185;SDS011;10252;48.792;8.582;2023-12-14T13:27:30;8.55;;;5.32;;
20185;SDS011;10252;48.792;8.582;2023-12-14T13:32:32;8.18;;;5.43;;
20185;SDS011;10252;48.792;8.582;2023-12-14T13:37:33;7.18;;;5.07;;
20185;SDS011;10252;48.792;8.582;2023-12-14T13:42:35;7.70;;;4.82;;
20185;SDS011;10252;48.792;8.582;2023-12-14T13:47:36;7.88;;;5.10;;
20185;SDS011;10252;48.792;8.582;2023-12-14T13:52:38;7.15;;;4.93;;
20185;SDS011;10252;48.792;8.582;2023-12-14T13:57:40;7.82;;;5.22;;
20185;SDS011;10252;48.792;8.582;2023-12-14T14:02:41;6.50;;;4.78;;
20185;SDS011;10252;48.792;8.582;2023-12-14T14:07:43;7.07;;;5.10;;
20185;SDS011;10252;48.792;8.582;2023-12-14T14:12:45;9.65;;;5.90;;
20185;SDS011;10252;48.792;8.582;2023-12-14T14:17:47;7.47;;;5.38;;
20185;SDS011;10252;48.792;8.582;2023-12-14T14:22:52;8.95;;;5.00;;
20185;SDS011;10252;48.792;8.582;2023-12-14T14:27:53;7.65;;;4.95;;
20185;SDS011;10252;48.792;8.582;2023-12-14T14:32:54;9.60;;;5.40;;
20185;SDS011;10252;48.792;8.582;2023-12-14T14:37:56;7.20;;;5.40;;
20185;SDS011;10252;48.792;8.582;2023-12-14T14:42:58;8.95;;;6.32;;
20185;SDS011;10252;48.792;8.582;2023-12-14T14:47:59;8.40;;;5.45;;
20185;SDS011;10252;48.792;8.582;2023-12-14T14:53:01;8.65;;;5.68;;
20185;SDS011;10252;48.792;8.582;2023-12-14T14:58:03;8.82;;;5.40;;
20185;SDS011;10252;48.792;8.582;2023-12-14T15:03:05;10.75;;;7.63;;
20185;SDS011;10252;48.792;8.582;2023-12-14T15:08:09;10.10;;;6.60;;
20185;SDS011;10252;48.792;8.582;2023-12-14T15:13:11;7.65;;;5.10;;
20185;SDS011;10252;48.792;8.582;2023-12-14T15:18:13;7.38;;;5.05;;
20185;SDS011;10252;48.792;8.582;2023-12-14T15:23:14;10.35;;;5.88;;
20185;SDS011;10252;48.792;8.582;2023-12-14T15:28:16;15.80;;;9.90;;
20185;SDS011;10252;48.792;8.582;2023-12-14T15:33:17;9.52;;;6.25;;
20185;SDS011;10252;48.792;8.582;2023-12-14T15:38:19;8.98;;;6.85;;
20185;SDS011;10252;48.792;8.582;2023-12-14T15:43:20;7.07;;;5.13;;
20185;SDS011;10252;48.792;8.582;2023-12-14T15:48:22;7.30;;;4.32;;
20185;SDS011;10252;48.792;8.582;2023-12-14T15:53:24;29.50;;;19.95;;
20185;SDS011;10252;48.792;8.582;2023-12-14T15:58:25;21.20;;;11.93;;
20185;SDS011;10252;48.792;8.582;2023-12-14T16:03:27;11.13;;;6.70;;
20185;SDS011;10252;48.792;8.582;2023-12-14T16:08:29;8.23;;;5.85;;
20185;SDS011;10252;48.792;8.582;2023-12-14T16:13:31;11.02;;;7.90;;
20185;SDS011;10252;48.792;8.582;2023-12-14T16:18:32;16.90;;;7.95;;
20185;SDS011;10252;48.792;8.582;2023-12-14T16:23:34;17.35;;;10.65;;
20185;SDS011;10252;48.792;8.582;2023-12-14T16:28:35;20.35;;;14.85;;
20185;SDS011;10252;48.792;8.582;2023-12-14T16:33:37;14.10;;;9.82;;
20185;SDS011;10252;48.792;8.582;2023-12-14T16:38:42;22.55;;;14.30;;
20185;SDS011;10252;48.792;8.582;2023-12-14T16:43:47;18.63;;;14.00;;
20185;SDS011;10252;48.792;8.582;2023-12-14T16:48:48;23.55;;;17.08;;
20185;SDS011;10252;48.792;8.582;2023-12-14T16:53:51;12.13;;;8.10;;
20185;SDS011;10252;48.792;8.582;2023-12-14T16:58:53;12.23;;;8.88;;
20185;SDS011;10252;48.792;8.582;2023-12-14T17:03:54;9.80;;;7.03;;
20185;SDS011;10252;48.792;8.582;2023-12-14T17:08:56;10.13;;;5.90;;
20185;SDS011;10252;48.792;8.582;2023-12-14T17:13:57;6.93;;;5.00;;
20185;SDS011;10252;48.792;8.582;2023-12-14T17:18:58;9.23;;;5.57;;
20185;SDS011;10252;48.792;8.582;2023-12-14T17:24:00;5.57;;;4.35;;
20185;SDS011;10252;48.792;8.582;2023-12-14T17:29:04;5.00;;;3.42;;
20185;SDS011;10252;48.792;8.582;2023-12-14T17:34:11;3.70;;;3.00;;
20185;SDS011;10252;48.792;8.582;2023-12-14T17:39:13;6.03;;;4.50;;
20185;SDS011;10252;48.792;8.582;2023-12-14T17:44:15;6.03;;;4.15;;
20185;SDS011;10252;48.792;8.582;2023-12-14T17:49:16;5.35;;;2.70;;
20185;SDS011;10252;48.792;8.582;2023-12-14T17:54:18;3.70;;;2.20;;
20185;SDS011;10252;48.792;8.582;2023-12-14T17:59:20;3.35;;;2.75;;
20185;SDS011;10252;48.792;8.582;2023-12-14T18:04:22;2.90;;;2.22;;
20185;SDS011;10252;48.792;8.582;2023-12-14T18:09:24;3.60;;;2.53;;
20185;SDS011;10252;48.792;8.582;2023-12-14T18:14:25;3.58;;;2.67;;
20185;SDS011;10252;48.792;8.582;2023-12-14T18:19:27;4.47;;;3.13;;
20185;SDS011;10252;48.792;8.582;2023-12-14T18:24:29;8.27;;;5.55;;
20185;SDS011;10252;48.792;8.582;2023-12-14T18:29:31;5.38;;;4.25;;
20185;SDS011;10252;48.792;8.582;2023-12-14T18:34:34;6.22;;;4.60;;
20185;SDS011;10252;48.792;8.582;2023-12-14T18:39:37;7.25;;;5.45;;
20185;SDS011;10252;48.792;8.582;2023-12-14T18:44:40;7.47;;;4.63;;
20185;SDS011;10252;48.792;8.582;2023-12-14T18:49:41;9.10;;;5.72;;
20185;SDS011;10252;48.792;8.582;2023-12-14T18:54:43;7.78;;;4.75;;
20185;SDS011;10252;48.792;8.582;2023-12-14T18:59:45;6.65;;;4.97;;
20185;SDS011;10252;48.792;8.582;2023-12-14T19:04:46;8.50;;;5.18;;
20185;SDS011;10252;48.792;8.582;2023-12-14T19:09:48;8.23;;;5.32;;
20185;SDS011;10252;48.792;8.582;2023-12-14T19:14:49;8.10;;;5.85;;
20185;SDS011;10252;48.792;8.582;2023-12-14T19:19:51;8.65;;;5.82;;
20185;SDS011;10252;48.792;8.582;2023-12-14T19:24:58;10.90;;;6.90;;
20185;SDS011;10252;48.792;8.582;2023-12-14T19:30:00;11.93;;;7.88;;
20185;SDS011;10252;48.792;8.582;2023-12-14T19:35:02;8.60;;;6.80;;
20185;SDS011;10252;48.792;8.582;2023-12-14T19:40:03;11.18;;;7.15;;
20185;SDS011;10252;48.792;8.582;2023-12-14T19:45:05;21.83;;;13.63;;
20185;SDS011;10252;48.792;8.582;2023-12-14T19:50:07;16.40;;;10.73;;
20185;SDS011;10252;48.792;8.582;2023-12-14T19:55:11;18.83;;;11.27;;
20185;SDS011;10252;48.792;8.582;2023-12-14T20:00:14;20.08;;;11.10;;
20185;SDS011;10252;48.792;8.582;2023-12-14T20:05:16;17.98;;;10.25;;
20185;SDS011;10252;48.792;8.582;2023-12-14T20:10:18;8.18;;;4.38;;
20185;SDS011;10252;48.792;8.582;2023-12-14T20:15:19;9.63;;;5.55;;
20185;SDS011;10252;48.792;8.582;2023-12-14T20:20:21;8.63;;;5.78;;
20185;SDS011;10252;48.792;8.582;2023-12-14T20:25:22;9.40;;;4.15;;
20185;SDS011;10252;48.792;8.582;2023-12-14T20:30:23;5.60;;;4.18;;
20185;SDS011;10252;48.792;8.582;2023-12-14T20:35:25;5.97;;;3.97;;
20185;SDS011;10252;48.792;8.582;2023-12-14T20:40:26;5.53;;;3.60;;
20185;SDS011;10252;48.792;8.582;2023-12-14T20:45:28;7.25;;;4.82;;
20185;SDS011;10252;48.792;8.582;2023-12-14T20:50:29;12.10;;;8.27;;
20185;SDS011;10252;48.792;8.582;2023-12-14T20:55:33;9.60;;;5.47;;
20185;SDS011;10252;48.792;8.582;2023-12-14T21:00:35;8.45;;;5.63;;
20185;SDS011;10252;48.792;8.582;2023-12-14T21:05:36;9.27;;;5.78;;
20185;SDS011;10252;48.792;8.582;2023-12-14T21:10:38;8.93;;;6.07;;
20185;SDS011;10252;48.792;8.582;2023-12-14T21:15:39;4.25;;;3.42;;
20185;SDS011;10252;48.792;8.582;2023-12-14T21:20:41;7.97;;;4.30;;
20185;SDS011;10252;48.792;8.582;2023-12-14T21:25:42;7.40;;;4.53;;
20185;SDS011;10252;48.792;8.582;2023-12-14T21:31:02;6.78;;;4.35;;
20185;SDS011;10252;48.792;8.582;2023-12-14T21:36:04;9.32;;;5.85;;
20185;SDS011;10252;48.792;8.582;2023-12-14T21:41:06;9.02;;;5.47;;
20185;SDS011;10252;48.792;8.582;2023-12-14T21:46:07;15.90;;;9.10;;
20185;SDS011;10252;48.792;8.582;2023-12-14T21:51:09;12.75;;;7.55;;
20185;SDS011;10252;48.792;8.582;2023-12-14T21:56:10;7.32;;;4.75;;
20185;SDS011;10252;48.792;8.582;2023-12-14T22:01:12;5.28;;;3.50;;
20185;SDS011;10252;48.792;8.582;2023-12-14T22:06:14;5.28;;;2.67;;
20185;SDS011;10252;48.792;8.582;2023-12-14T22:11:15;6.30;;;2.78;;
20185;SDS011;10252;48.792;8.582;2023-12-14T22:16:17;2.17;;;1.42;;
20185;SDS011;10252;48.792;8.582;2023-12-14T22:21:18;45.42;;;15.45;;
20185;SDS011;10252;48.792;8.582;2023-12-14T22:26:19;10.27;;;5.32;;
20185;SDS011;10252;48.792;8.582;2023-12-14T22:31:21;16.00;;;5.57;;
20185;SDS011;10252;48.792;8.582;2023-12-14T22:36:22;8.45;;;5.32;;
20185;SDS011;10252;48.792;8.582;2023-12-14T22:41:24;5.93;;;3.85;;
20185;SDS011;10252;48.792;8.582;2023-12-14T22:46:25;4.55;;;2.60;;
20185;SDS011;10252;48.792;8.582;2023-12-14T22:51:26;5.85;;;3.33;;
20185;SDS011;10252;48.792;8.582;2023-12-14T22:56:28;3.63;;;2.00;;
20185;SDS011;10252;48.792;8.582;2023-12-14T23:01:31;11.13;;;7.03;;
20185;SDS011;10252;48.792;8.582;2023-12-14T23:06:33;6.07;;;3.88;;
20185;SDS011;10252;48.792;8.582;2023-12-14T23:11:34;3.80;;;2.25;;
20185;SDS011;10252;48.792;8.582;2023-12-14T23:16:36;4.93;;;3.47;;
20185;SDS011;10252;48.792;8.582;2023-12-14T23:21:38;5.93;;;4.10;;
20185;SDS011;10252;48.792;8.582;2023-12-14T23:26:39;7.32;;;4.53;;
20185;SDS011;10252;48.792;8.582;2023-12-14T23:31:41;9.45;;;6.32;;
20185;SDS011;10252;48.792;8.582;2023-12-14T23:36:42;6.10;;;4.00;;
20185;SDS011;10252;48.792;8.582;2023-12-14T23:41:44;6.38;;;3.88;;
20185;SDS011;10252;48.792;8.582;2023-12-14T23:46:45;10.55;;;6.28;;
20185;SDS011;10252;48.792;8.582;2023-12-14T23:51:47;8.13;;;4.80;;
20185;SDS011;10252;48.792;8.582;2023-12-14T23:56:48;11.65;;;6.72;;
